»·PEaware :: SKY519 KHII-KPSP

SKY519 :: KHII-KPSP

FLIGHT INFORMATION

Flight Status: Arrived
Operator:
Sky High Charters
More flights by this operator :: More flights under this callsign
Pilot: Luiz R. (29874)
Aircraft: MOONEY M-20 201 202 205 220 ATS MSE
(M20P)
More flights by this aircraft type
Origin: KHII Lake Havasu City
United States
Destination: KPSP Palm Springs Intl
United States
More flights between these airports :: More routes between these airports
Route: +EED CLOWD1
File this flight plan on PilotEdge
Remarks: SCENARIO 8 part 2
Altitude:
(Current/Filed)
10,000ft
Speed:
(Current/Filed)
160kts
Departed: 23-Oct-20 08:16 PM
Arrived: 23-Oct-20 09:16 PM
Distance/Time
Traveled:
116nm/1:00
Distance/Time
To Go:
Arrived

Flight Plot

Page will automatically refresh every two minutes.

Flight plan parsing failed; only flown route is shown


Map Options




Map Legend


Flown Route
Filed Route
Departure Airport
Arrival Airport
Navaid (VOR, NDB)
Fix

Horizontal Profiles

Position Reports

Time Latitude Longitude Heading Altitude Ground
Speed
23-Oct-20 20:02 34.574751 -114.362161 331 757ft 0kts
23-Oct-20 20:03 34.574751 -114.362161 331 757ft 0kts
23-Oct-20 20:04 34.574751 -114.362161 331 757ft 0kts
23-Oct-20 20:05 34.574751 -114.362161 331 757ft 0kts
23-Oct-20 20:06 34.574751 -114.362161 331 757ft 0kts
23-Oct-20 20:07 34.574751 -114.362161 331 757ft 0kts
23-Oct-20 20:08 34.574751 -114.362161 331 757ft 0kts
23-Oct-20 20:09 34.574751 -114.362161 331 757ft 0kts
23-Oct-20 20:10 34.574751 -114.362161 331 757ft 0kts
23-Oct-20 20:11 34.575363 -114.362575 330 757ft 17kts
23-Oct-20 20:12 34.579628 -114.365624 328 735ft 0kts
23-Oct-20 20:13 34.580188 -114.365616 67 735ft 0kts
23-Oct-20 20:14 34.580188 -114.365616 67 735ft 0kts
23-Oct-20 20:15 34.577847 -114.363210 149 758ft 64kts
23-Oct-20 20:16 34.557416 -114.349913 173 2042ft 83kts
23-Oct-20 20:17 34.550990 -114.373559 312 3288ft 108kts
23-Oct-20 20:18 34.572715 -114.400191 311 4505ft 116kts
23-Oct-20 20:19 34.594066 -114.426659 340 5743ft 116kts
23-Oct-20 20:20 34.625722 -114.437812 348 6853ft 120kts
23-Oct-20 20:21 34.658135 -114.445191 344 7951ft 118kts
23-Oct-20 20:22 34.689878 -114.453442 342 9006ft 116kts
23-Oct-20 20:23 34.721100 -114.461808 341 10021ft 115kts
23-Oct-20 20:24 34.755733 -114.482087 276 9987ft 155kts
23-Oct-20 20:25 34.732447 -114.525832 231 9983ft 161kts
23-Oct-20 20:26 34.704603 -114.567808 231 9982ft 158kts
23-Oct-20 20:27 34.677196 -114.609234 231 9982ft 157kts
23-Oct-20 20:28 34.650095 -114.650174 231 9982ft 157kts
23-Oct-20 20:29 34.621985 -114.692524 231 9985ft 163kts
23-Oct-20 20:30 34.593271 -114.735742 231 9984ft 165kts
23-Oct-20 20:31 34.564414 -114.779181 231 9984ft 165kts
23-Oct-20 20:32 34.535429 -114.822761 231 9984ft 165kts
23-Oct-20 20:33 34.506462 -114.866262 231 9984ft 165kts
23-Oct-20 20:34 34.477456 -114.909767 231 9983ft 165kts
23-Oct-20 20:35 34.448492 -114.953157 231 9970ft 166kts
23-Oct-20 20:36 34.419430 -114.996637 231 9965ft 165kts
23-Oct-20 20:37 34.390361 -115.040075 231 9965ft 165kts
23-Oct-20 20:38 34.361338 -115.083392 232 9964ft 166kts
23-Oct-20 20:39 34.332150 -115.126904 232 9964ft 166kts
23-Oct-20 20:40 34.302965 -115.170357 232 9964ft 166kts
23-Oct-20 20:41 34.273759 -115.213787 232 9967ft 166kts
23-Oct-20 20:42 34.244536 -115.257187 233 9987ft 166kts
23-Oct-20 20:43 34.215288 -115.300576 233 10007ft 166kts
23-Oct-20 20:44 34.185945 -115.344051 233 10027ft 167kts
23-Oct-20 20:45 34.156415 -115.387751 233 10047ft 168kts
23-Oct-20 20:46 34.126739 -115.431618 234 10067ft 168kts
23-Oct-20 20:47 34.096960 -115.475580 234 10074ft 170kts
23-Oct-20 20:48 34.066890 -115.519866 233 10067ft 170kts
23-Oct-20 20:49 34.036710 -115.563898 233 10042ft 171kts
23-Oct-20 20:50 34.006536 -115.608232 233 10018ft 170kts
23-Oct-20 20:51 33.976638 -115.652144 233 9994ft 170kts
23-Oct-20 20:52 33.946304 -115.696643 233 9689ft 176kts
23-Oct-20 20:53 33.914824 -115.742751 233 9199ft 179kts
23-Oct-20 20:54 33.884058 -115.787769 233 8977ft 168kts
23-Oct-20 20:55 33.854897 -115.830331 233 8985ft 163kts
23-Oct-20 20:56 33.825943 -115.872633 233 8839ft 170kts
23-Oct-20 20:57 33.794348 -115.918744 233 8150ft 183kts
23-Oct-20 20:58 33.761804 -115.966123 233 7449ft 184kts
23-Oct-20 20:59 33.729340 -116.013312 233 6921ft 175kts
23-Oct-20 21:00 33.698941 -116.057524 233 6420ft 184kts
23-Oct-20 21:01 33.665736 -116.105681 232 5422ft 188kts
23-Oct-20 21:02 33.632443 -116.153912 233 4417ft 185kts
23-Oct-20 21:03 33.647699 -116.198005 317 3418ft 176kts
23-Oct-20 21:04 33.675541 -116.241686 305 3128ft 151kts
23-Oct-20 21:05 33.699075 -116.281959 305 3136ft 145kts
23-Oct-20 21:06 33.721587 -116.322220 292 3169ft 146kts
23-Oct-20 21:07 33.725413 -116.365692 268 2967ft 109kts
23-Oct-20 21:08 33.727669 -116.400726 290 2214ft 102kts
23-Oct-20 21:09 33.741513 -116.428744 324 1620ft 83kts
23-Oct-20 21:10 33.759072 -116.444500 322 1734ft 78kts
23-Oct-20 21:11 33.776292 -116.460182 323 1689ft 75kts
23-Oct-20 21:12 33.793182 -116.474908 321 1385ft 74kts
23-Oct-20 21:13 33.809398 -116.489688 323 772ft 71kts
23-Oct-20 21:14 33.824657 -116.503171 324 414ft 44kts
23-Oct-20 21:15 33.828479 -116.507445 299 427ft 9kts
23-Oct-20 21:16 33.826546 -116.506930 146 423ft 25kts
23-Oct-20 21:17 33.825641 -116.507402 235 421ft 0kts

Navigation Log

Ident Type
Flight plan parsing failed, navigation log unavailable